Carson Sink, Nevada Weather observations

Data are for observation ending at time listed.
 Day   Time    Ave.   Ave.  Ave.  Vector   Max.   Stn.    Total    Solar   Ave.  
  of    of     Air    Rel.  Wind   Wind    Wind   Baro.  Precip.   Rad.    Soil  
Year   Day     Temp.  Hum.  Speed  Dir.    Gust   Pres.                    Temp. 
2014   (PST)    F      %     mph   deg.    mph     mb.     in.     W/m2     F   
------------------------------------------------------------------------------
 107    1:30   47.5    35    8.9    24     10.4   880.1    0.00       0     62.5
 107    1:40   47.6    35    9.3    29     11.4   880.1    0.00       0     62.3
 107    1:50   48.3    34    9.4    40     11.1   880.0    0.00       0     62.1
 107    2:00   48.1    34   10.7    37     12.3   879.9    0.00       0     61.9
 107    2:10   47.7    35    9.3    40     12.0   880.0    0.00       0     61.7
 107    2:20   47.0    36    7.4    41      9.3   880.1    0.00       0     61.6
 107    2:30   46.8    37    7.3    49      8.8   880.1    0.00       0     61.4
 107    2:40   47.4    36    8.4    50     11.4   880.1    0.00       0     61.2
 107    2:50   47.6    36    7.9    52     10.8   880.0    0.00       0     61.0
 107    3:00   46.7    37    7.9    52     10.0   880.0    0.00       0     60.9
 107    3:10   46.0    38    7.4    58      9.9   880.0    0.00       0     60.7
 107    3:20   45.4    38    8.1    67     10.4   879.9    0.00       0     60.6
 107    3:30   44.3    40    8.7    69     10.6   879.9    0.00       0     60.4
 107    3:40   43.8    40    9.2    68     11.3   880.0    0.00       0     60.3
 107    3:50   43.9    40    8.2    73      9.9   880.0    0.00       0     60.1
 107    4:00   44.0    41    7.8    75      9.3   880.0    0.00       0     60.0
 107    4:10   44.1    41    8.1    73     10.0   880.0    0.00       0     59.8
 107    4:20   44.4    41    8.2    88     12.0   879.9    0.00       0     59.6
 107    4:30   44.7    40    8.8    67     11.4   879.9    0.00       0     59.5
 107    4:40   44.7    40    8.1    73     13.2   879.9    0.00       0     59.3
 107    4:50   43.6    42    6.3    70      9.3   879.9    0.00       0     59.1
 107    5:00   43.3    43    7.3    64      9.3   879.9    0.00       0     59.0
 107    5:10   43.2    43    7.3    59      9.5   879.9    0.00       2     58.9
 107    5:20   43.1    43    8.6    59     10.5   879.7    0.00       4     58.7
 107    5:30   43.1    43    8.2    60     10.0   879.7    0.00      14     58.5
 107    5:40   43.6    43    7.7    58      9.4   879.7    0.00      35     58.4
 107    5:50   44.0    42    8.6    54     10.2   879.7    0.00      70     58.2
 107    6:00   44.8    41    8.3    55     10.3   879.8    0.00     118     58.1
 107    6:10   45.5    40    8.2    56     10.7   879.8    0.00     141     58.0
 107    6:20   46.8    38    8.4    61     10.9   879.8    0.00     182     57.8
 107    6:30   47.3    37    7.5    58     10.0   879.9    0.00     220     57.7
 107    6:40   47.9    36    8.0    53     10.2   879.9    0.00     255     57.6
 107    6:50   48.9    35    6.6    56      8.4   879.9    0.00     288     57.6
 107    7:00   50.0    34    4.0    87      6.9   880.0    0.00     318     57.5
 107    7:10   51.0    33    1.8    71      7.0   880.0    0.00     353     57.5
 107    7:20   52.7    31    5.0    66      8.4   879.9    0.00     385     57.5
 107    7:30   53.8    30    6.5    87      8.9   879.8    0.00     420     57.5
 107    7:40   54.5    30    5.6   108      7.9   879.8    0.00     454     57.6
 107    7:50   55.5    29    4.2   109      7.3   879.7    0.00     487     57.7
 107    8:00   55.9    29    4.2   137      7.3   879.7    0.00     507     57.8
 107    8:10   56.2    28    1.8   141      5.6   879.6    0.00     535     58.0
 107    8:20   57.3    27    1.1   156      4.5   879.6    0.00     571     58.2
 107    8:30   58.9    26    0.0     0      0.0   879.5    0.00     603     58.5
 107    8:40   59.5    25    0.2   142      4.2   879.4    0.00     629     58.7
 107    8:50   60.4    24    0.5   160      5.3   879.4    0.00     654     59.1
 107    9:00   60.6    24    0.5   164      5.0   879.4    0.00     681     59.4
 107    9:10   61.4    23    0.6   167      5.0   879.3    0.00     708     59.7
 107    9:20   62.1    22    0.0     0      0.0   879.3    0.00     731     60.1
 107    9:30   63.2    22    0.0     0      0.0   879.2    0.00     753     60.5
 107    9:40   64.4    21    0.9   177      6.1   879.0    0.00     774     61.0
 107    9:50   64.5    21    0.8   163      5.0   879.0    0.00     792     61.4
 107   10:00   64.7    21    0.8   116      5.8   878.8    0.00     812     61.9
 107   10:10   65.8    20    0.7   192      5.7   878.7    0.00     828     62.4
 107   10:20   66.6    20    0.2   181      3.7   878.6    0.00     843     62.9
 107   10:30   66.8    19    0.9   111      5.1   878.5    0.00     858     63.5
 107   10:40   67.1    19    0.6    23      5.7   878.4    0.00     869     64.0
 107   10:50   67.8    18    1.0   167      5.2   878.2    0.00     879     64.6
 107   11:00   69.0    18    0.0   149      0.4   878.1    0.00     888     65.2
 107   11:10   68.7    18    2.7   265      6.6   877.9    0.00     896     65.7
 107   11:20   69.7    17    0.0   180      2.5   877.8    0.00     901     66.3
 107   11:30   70.4    17    5.2   230     11.1   877.6    0.00     905     66.9
 107   11:40   70.3    16    5.0   239     12.9   877.6    0.00     905     67.5
 107   11:50   71.4    16    2.5   218      9.5   877.4    0.00     909     68.1
 107   12:00   71.9    16    4.4   210      9.8   877.2    0.00     906     68.6
 107   12:10   72.6    16    4.5   191     12.4   877.0    0.00     905     69.2
 107   12:20   72.3    16    5.1   248     14.0   876.9    0.00     902     69.8
 107   12:30  999.0   999  999.0   999    999.0   999.0   999.00     999    999.0
 107   12:40  999.0   999  999.0   999    999.0   999.0   999.00     999    999.0
 107   12:50  999.0   999  999.0   999    999.0   999.0   999.00     999    999.0
 107   13:00  999.0   999  999.0   999    999.0   999.0   999.00     999    999.0
 107   13:10  999.0   999  999.0   999    999.0   999.0   999.00     999    999.0
 107   13:20  999.0   999  999.0   999    999.0   999.0   999.00     999    999.0
 107   13:30   75.4    14    9.4   233     17.1   876.1    0.00     828     73.4
 107   13:40   74.8    15    7.4   281     14.5   876.0    0.00     812     73.8
 107   13:50   75.1    14    7.7   247     16.7   875.8    0.00     790     74.2
 107   14:00   75.6    14   10.7   270     18.8   875.6    0.00     774     74.5
 107   14:10   76.2    14    9.2   246     16.7   875.4    0.00     723     74.8
 107   14:20   76.0    14    8.2   252     15.3   875.2    0.00     635     74.9
 107   14:30   76.0    14    7.8   248     15.1   875.0    0.00     731     75.0
 107   14:40   76.6    14    6.0   257     18.0   874.8    0.00     671     75.0
 107   14:50   77.2    14   10.4   256     19.4   874.6    0.00     518     74.9
 107   15:00   77.3    14   13.6   286     21.8   874.5    0.00     549     74.8
 107   15:10   77.2    14    7.6   276     16.7   874.5    0.00     508     74.8
 107   15:20   77.0    14    3.0   259     12.6   874.3    0.00     447     74.7
 107   15:30   76.8    14    4.1   222     11.7   874.2    0.00     395     74.6
 107   15:40   77.7    14    6.6   243     11.8   874.0    0.00     466     74.6
 107   15:50   77.8    13    6.8   230     13.7   873.9    0.00     337     74.6
 107   16:00   77.3    14    4.5   246     10.2   873.9    0.00     353     74.6
 107   16:10   78.2    14    1.7   235      7.6   873.7    0.00     421     74.6
 107   16:20   79.0    13    6.9   205     12.7   873.7    0.00     310     74.7
 107   16:30   77.5    14    4.9   239      9.7   873.7    0.00     245     74.8
 107   16:40   77.6    14    0.1   179      2.4   873.6    0.00     237     74.8
 107   16:50   78.0    14    5.5   189     11.0   873.5    0.00     217     74.8
 107   17:00   77.2    14    5.9   173     11.3   873.4    0.00     155     74.8
 107   17:10   77.6    14   11.8   216     17.0   873.2    0.00     128     74.8
 107   17:20   77.7    15   11.2   241     15.3   873.1    0.00      99     74.8
 107   17:30   77.6    16   15.7   233     25.3   873.0    0.00      79     74.8
 107   17:40   77.3    16   20.5   253     24.5   872.8    0.00      61     74.8
 107   17:50   76.9    16   19.0   249     22.9   872.9    0.00      33     74.7
 107   18:00   76.5    15   19.4   253     26.5   872.8    0.00      22     74.6
 107   18:10   75.7    15   21.4   268     26.1   873.0    0.00      17     74.5
 107   18:20   74.7    17   19.2   276     23.5   873.3    0.00       9     74.4
 107   18:30   73.9    19   20.6   280     25.8   873.5    0.00       5     74.2
 107   18:40   72.8    22   21.6   283     26.5   873.6    0.00       2     74.0
 107   18:50   71.8    24   19.8   283     26.2   873.8    0.00       0     73.9
 107   19:00   71.1    24   20.6   280     26.9   873.9    0.00       0     73.7
 107   19:10   70.5    25   17.1   280     23.4   874.1    0.00       0     73.5
 107   19:20   70.1    25   18.5   278     27.2   874.3    0.00       0     73.3
 107   19:30   69.9    25   16.1   279     23.6   874.6    0.00       0     73.1
 107   19:40   69.5    26   15.8   279     22.2   874.8    0.00       0     73.0
 107   19:50   69.1    27   16.2   278     24.0   875.1    0.00       0     72.7
 107   20:00   68.8    28   16.1   276     21.7   875.4    0.00       0     72.5
 107   20:10   68.5    28   15.7   280     22.9   875.6    0.00       0     72.3
 107   20:20   67.9    29   14.4   284     17.0   875.8    0.00       0     72.2
 107   20:30   67.6    30   14.8   288     23.6   876.0    0.00       0     72.0
 107   20:40   67.4    30   15.4   280     22.6   876.1    0.00       0     71.8
 107   20:50   67.1    30   16.0   278     23.7   876.3    0.00       0     71.6
 107   21:00   67.0    30   18.4   278     27.0   876.4    0.00       0     71.4
 107   21:10   66.7    30   17.4   278     27.8   876.4    0.00       0     71.2
 107   21:20   66.3    30   15.0   279     20.0   876.6    0.00       0     71.0
 107   21:30   66.2    28   15.0   283     22.1   876.8    0.00       0     70.8
 107   21:40   66.0    29   14.2   287     22.9   876.9    0.00       0     70.7
 107   21:50   65.4    30   13.6   291     15.7   876.9    0.00       0     70.5
 107   22:00   64.9    30   12.0   288     15.5   877.0    0.00       0     70.3
 107   22:10   64.6    30   13.3   286     15.9   876.9    0.00       0     70.1
 107   22:20   64.6    31   12.8   291     15.5   876.9    0.00       0     70.0
 107   22:30   64.4    30   12.5   288     15.3   877.0    0.00       0     69.8
 107   22:40   64.3    30   11.4   277     15.0   877.1    0.00       0     69.7
 107   22:50   63.5    30    8.4   286     10.6   877.3    0.00       0     69.5
 107   23:00   62.9    30    5.9   292      8.8   877.5    0.00       0     69.3
 107   23:10   62.4    31    1.9   304      9.2   877.6    0.00       0     69.2
 107   23:20   62.5    32    6.5   292      7.9   877.7    0.00       0     69.1
 107   23:30   61.6    34    8.6   332     12.1   877.9    0.00       0     68.9
 107   23:40   60.5    40   12.8   351     15.6   878.0    0.00       0     68.7
 107   23:50   59.3    43   12.8   354     15.9   878.1    0.00       0     68.6
 108    0:00   58.7    44   12.7   357     15.9   878.2    0.00       0     68.4
 108    0:10   58.1    45   12.0     8     16.2   878.3    0.00       0     68.2
 108    0:20   58.1    45   10.5   354     12.1   878.3    0.00       0     68.1
 108    0:30   57.3    46   11.0   337     14.5   878.3    0.00       0     67.9
 108    0:40   56.6    47   12.1   339     14.5   878.3    0.00       0     67.7
 108    0:50   55.6    48   11.1   337     13.7   878.2    0.00       0     67.5
 108    1:00   55.2    49   10.2   326     13.4   878.3    0.00       0     67.4
 108    1:10   54.7    50    8.9   326     11.6   878.3    0.00       0     67.2
 108    1:20   54.8    50   12.2   333     15.7   878.3    0.00       0     67.0

Return to Carson Sink graphs page.


Western Regional Climate Center,wrcc@dri.edu